ADDS METAR Data INFO
IDs: Format: Raw Decoded Include TAF

Data at: 2214 UTC 24 Jun 2018

SKBO 242200Z 13011KT 9999 VCSH SCT020 SCT200 16/08 A3026 RMK VCSH NE